Mr. Cass — WDB5593 — position and weather

sailwx.info

Track history (hours):
 
Tides and Currents Weather Stations Pressure Air Temp Water Temp Dewpoint Dewpoint Depression Visibility Wind Speed Wind Dir Waves Ship Positions

Mr. Cass

Owner: Cass Marine Towing LLC, Marrero, LA. More information available from US FCC via Universal Licensing System and Coast Guard Vessel Documentation Center.

Last reported at 2018-Mar-04 13:11 UTC. Time now 2018-Apr-24 12:44 UTC.
Position N 30°03' W 090°36'.
Warning: this ship's position is 50 days out of date.

Length 17 m; draft 3.5 m.

Type: Towing. MMSI: 366911310.

Date/timePositionNaut miles runAvg speedWind from/ knotsBaromVisibWave heightAir tempDewpointWater temp
2018-Mar-04 13:11N 30°03' W 090°36'3 5.0
2018-Mar-04 12:40N 30°03' W 090°39'0 0.7
2018-Mar-04 12:28N 30°03' W 090°39'1 2.3
2018-Mar-04 11:56N 30°02' W 090°38'4 3.1
2018-Mar-04 10:36N 30°03' W 090°33'0 0.1
2018-Mar-04 10:20N 30°03' W 090°33'0 0.0
2018-Mar-04 09:52N 30°03' W 090°33'0 0.0
2018-Mar-04 09:30N 30°03' W 090°33'0 0.0
2018-Mar-04 08:59N 30°03' W 090°33'0 0.0
2018-Mar-04 08:30N 30°03' W 090°33'0 0.0
2018-Mar-04 08:00N 30°03' W 090°33'0 0.0
2018-Mar-04 07:30N 30°03' W 090°33'0 0.0
2018-Mar-04 07:00N 30°03' W 090°33'0 0.0
2018-Mar-04 06:30N 30°03' W 090°33'3 3.2
2018-Mar-04 05:29N 30°02' W 090°37'1 2.7
2018-Mar-04 05:00N 30°02' W 090°38'14 0.7
2018-Mar-03 08:05N 29°57' W 090°23'0 2.1
2018-Mar-03 07:59N 29°57' W 090°23'  
Track history (hours):
 
Tides and Currents Weather Stations Pressure Air Temp Water Temp Dewpoint Dewpoint Depression Visibility Wind Speed Wind Dir Waves Ship Positions

Mr. Cass

Owner: Cass Marine Towing LLC, Marrero, LA. More information available from US FCC via Universal Licensing System and Coast Guard Vessel Documentation Center.

Last reported at 2018-Mar-04 13:11 UTC. Time now 2018-Apr-24 12:44 UTC.
Position N 30°03' W 090°36'.
Warning: this ship's position is 50 days out of date.

Length 17 m; draft 3.5 m.

Type: Towing. MMSI: 366911310.

Date/timePositionNaut miles runAvg speedWind from/ knotsBaromVisibWave heightAir tempDewpointWater temp
2018-Mar-04 13:11N 30°03' W 090°36'3 5.0
2018-Mar-04 12:40N 30°03' W 090°39'0 0.7
2018-Mar-04 12:28N 30°03' W 090°39'1 2.3
2018-Mar-04 11:56N 30°02' W 090°38'4 3.1
2018-Mar-04 10:36N 30°03' W 090°33'0 0.1
2018-Mar-04 10:20N 30°03' W 090°33'0 0.0
2018-Mar-04 09:52N 30°03' W 090°33'0 0.0
2018-Mar-04 09:30N 30°03' W 090°33'0 0.0
2018-Mar-04 08:59N 30°03' W 090°33'0 0.0
2018-Mar-04 08:30N 30°03' W 090°33'0 0.0
2018-Mar-04 08:00N 30°03' W 090°33'0 0.0
2018-Mar-04 07:30N 30°03' W 090°33'0 0.0
2018-Mar-04 07:00N 30°03' W 090°33'0 0.0
2018-Mar-04 06:30N 30°03' W 090°33'3 3.2
2018-Mar-04 05:29N 30°02' W 090°37'1 2.7
2018-Mar-04 05:00N 30°02' W 090°38'14 0.7
2018-Mar-03 08:05N 29°57' W 090°23'0 2.1
2018-Mar-03 07:59N 29°57' W 090°23'  

Dump ship's entire track history